sensor_id;sensor_type;location;lat;lon;timestamp;P1;durP1;ratioP1;P2;durP2;ratioP2
51612;SDS011;37694;51.748;14.326;2022-12-13T00:01:31;8.60;;;4.82;;
51612;SDS011;37694;51.748;14.326;2022-12-13T00:03:59;7.25;;;4.75;;
51612;SDS011;37694;51.748;14.326;2022-12-13T00:06:26;10.82;;;5.22;;
51612;SDS011;37694;51.748;14.326;2022-12-13T00:08:54;6.45;;;4.72;;
51612;SDS011;37694;51.748;14.326;2022-12-13T00:11:20;9.10;;;5.15;;
51612;SDS011;37694;51.748;14.326;2022-12-13T00:13:46;13.07;;;5.95;;
51612;SDS011;37694;51.748;14.326;2022-12-13T00:16:13;12.00;;;6.03;;
51612;SDS011;37694;51.748;14.326;2022-12-13T00:18:46;7.75;;;4.68;;
51612;SDS011;37694;51.748;14.326;2022-12-13T00:21:13;8.48;;;4.88;;
51612;SDS011;37694;51.748;14.326;2022-12-13T00:23:41;6.45;;;5.05;;
51612;SDS011;37694;51.748;14.326;2022-12-13T00:26:10;8.30;;;5.18;;
51612;SDS011;37694;51.748;14.326;2022-12-13T00:28:40;6.47;;;4.95;;
51612;SDS011;37694;51.748;14.326;2022-12-13T00:31:06;7.32;;;4.85;;
51612;SDS011;37694;51.748;14.326;2022-12-13T00:33:33;9.55;;;5.47;;
51612;SDS011;37694;51.748;14.326;2022-12-13T00:36:01;7.78;;;5.07;;
51612;SDS011;37694;51.748;14.326;2022-12-13T00:38:28;6.43;;;4.60;;
51612;SDS011;37694;51.748;14.326;2022-12-13T00:40:54;7.82;;;5.10;;
51612;SDS011;37694;51.748;14.326;2022-12-13T00:43:19;6.63;;;5.13;;
51612;SDS011;37694;51.748;14.326;2022-12-13T00:45:46;9.05;;;4.88;;
51612;SDS011;37694;51.748;14.326;2022-12-13T00:48:12;10.70;;;5.45;;
51612;SDS011;37694;51.748;14.326;2022-12-13T00:50:38;8.15;;;5.18;;
51612;SDS011;37694;51.748;14.326;2022-12-13T00:53:04;7.70;;;5.13;;
51612;SDS011;37694;51.748;14.326;2022-12-13T00:55:30;7.13;;;4.82;;
51612;SDS011;37694;51.748;14.326;2022-12-13T00:57:56;5.80;;;5.20;;
51612;SDS011;37694;51.748;14.326;2022-12-13T01:00:21;6.97;;;5.05;;
51612;SDS011;37694;51.748;14.326;2022-12-13T01:02:49;9.52;;;5.22;;
51612;SDS011;37694;51.748;14.326;2022-12-13T01:05:17;13.27;;;5.03;;
51612;SDS011;37694;51.748;14.326;2022-12-13T01:07:43;7.45;;;5.03;;
51612;SDS011;37694;51.748;14.326;2022-12-13T01:10:09;5.93;;;4.90;;
51612;SDS011;37694;51.748;14.326;2022-12-13T01:12:36;9.80;;;5.20;;
51612;SDS011;37694;51.748;14.326;2022-12-13T01:15:03;10.90;;;5.15;;
51612;SDS011;37694;51.748;14.326;2022-12-13T01:17:29;7.53;;;5.30;;
51612;SDS011;37694;51.748;14.326;2022-12-13T01:19:55;8.77;;;5.00;;
51612;SDS011;37694;51.748;14.326;2022-12-13T01:22:21;7.97;;;5.22;;
51612;SDS011;37694;51.748;14.326;2022-12-13T01:24:47;6.07;;;4.47;;
51612;SDS011;37694;51.748;14.326;2022-12-13T01:27:12;9.18;;;4.82;;
51612;SDS011;37694;51.748;14.326;2022-12-13T01:29:38;6.53;;;5.10;;
51612;SDS011;37694;51.748;14.326;2022-12-13T01:32:04;7.45;;;4.75;;
51612;SDS011;37694;51.748;14.326;2022-12-13T01:34:29;8.18;;;5.25;;
51612;SDS011;37694;51.748;14.326;2022-12-13T01:36:55;7.90;;;5.20;;
51612;SDS011;37694;51.748;14.326;2022-12-13T01:39:21;10.13;;;5.10;;
51612;SDS011;37694;51.748;14.326;2022-12-13T01:41:48;11.43;;;5.53;;
51612;SDS011;37694;51.748;14.326;2022-12-13T01:47:21;9.07;;;4.85;;
51612;SDS011;37694;51.748;14.326;2022-12-13T01:50:02;7.80;;;4.82;;
51612;SDS011;37694;51.748;14.326;2022-12-13T01:52:32;9.25;;;5.22;;
51612;SDS011;37694;51.748;14.326;2022-12-13T01:54:59;10.40;;;4.93;;
51612;SDS011;37694;51.748;14.326;2022-12-13T01:57:28;11.50;;;5.35;;
51612;SDS011;37694;51.748;14.326;2022-12-13T01:59:54;5.80;;;4.75;;
51612;SDS011;37694;51.748;14.326;2022-12-13T02:02:20;7.07;;;5.28;;
51612;SDS011;37694;51.748;14.326;2022-12-13T02:04:51;10.07;;;5.00;;
51612;SDS011;37694;51.748;14.326;2022-12-13T02:07:32;8.20;;;4.85;;
51612;SDS011;37694;51.748;14.326;2022-12-13T02:10:00;7.13;;;5.28;;
51612;SDS011;37694;51.748;14.326;2022-12-13T02:12:30;11.98;;;5.78;;
51612;SDS011;37694;51.748;14.326;2022-12-13T02:15:00;5.47;;;4.25;;
51612;SDS011;37694;51.748;14.326;2022-12-13T02:21:01;5.93;;;4.47;;
51612;SDS011;37694;51.748;14.326;2022-12-13T02:24:08;6.57;;;4.63;;
51612;SDS011;37694;51.748;14.326;2022-12-13T02:26:45;7.10;;;4.75;;
51612;SDS011;37694;51.748;14.326;2022-12-13T02:31:53;6.50;;;4.50;;
51612;SDS011;37694;51.748;14.326;2022-12-13T02:34:53;7.47;;;5.15;;
51612;SDS011;37694;51.748;14.326;2022-12-13T02:40:10;6.72;;;4.40;;
51612;SDS011;37694;51.748;14.326;2022-12-13T02:43:24;5.75;;;5.05;;
51612;SDS011;37694;51.748;14.326;2022-12-13T02:45:33;6.75;;;4.45;;
51612;SDS011;37694;51.748;14.326;2022-12-13T02:48:09;7.45;;;5.30;;
51612;SDS011;37694;51.748;14.326;2022-12-13T02:50:37;5.10;;;4.60;;
51612;SDS011;37694;51.748;14.326;2022-12-13T02:53:05;6.47;;;4.97;;
51612;SDS011;37694;51.748;14.326;2022-12-13T02:55:32;9.32;;;5.50;;
51612;SDS011;37694;51.748;14.326;2022-12-13T02:57:59;4.60;;;4.20;;
51612;SDS011;37694;51.748;14.326;2022-12-13T03:00:33;9.05;;;4.72;;
51612;SDS011;37694;51.748;14.326;2022-12-13T03:03:32;8.18;;;4.35;;
51612;SDS011;37694;51.748;14.326;2022-12-13T03:06:30;6.53;;;4.65;;
51612;SDS011;37694;51.748;14.326;2022-12-13T03:12:19;5.85;;;4.53;;
51612;SDS011;37694;51.748;14.326;2022-12-13T03:17:52;6.15;;;4.70;;
51612;SDS011;37694;51.748;14.326;2022-12-13T03:20:30;5.13;;;4.50;;
51612;SDS011;37694;51.748;14.326;2022-12-13T03:22:56;5.55;;;4.70;;
51612;SDS011;37694;51.748;14.326;2022-12-13T03:25:26;4.65;;;3.95;;
51612;SDS011;37694;51.748;14.326;2022-12-13T03:27:55;9.73;;;5.05;;
51612;SDS011;37694;51.748;14.326;2022-12-13T03:30:21;8.27;;;4.72;;
51612;SDS011;37694;51.748;14.326;2022-12-13T03:32:46;7.68;;;4.20;;
51612;SDS011;37694;51.748;14.326;2022-12-13T03:35:12;5.22;;;4.60;;
51612;SDS011;37694;51.748;14.326;2022-12-13T03:37:38;4.97;;;4.28;;
51612;SDS011;37694;51.748;14.326;2022-12-13T03:40:04;6.50;;;3.97;;
51612;SDS011;37694;51.748;14.326;2022-12-13T03:42:30;4.88;;;4.35;;
51612;SDS011;37694;51.748;14.326;2022-12-13T03:44:55;5.28;;;4.15;;
51612;SDS011;37694;51.748;14.326;2022-12-13T03:47:21;6.35;;;4.60;;
51612;SDS011;37694;51.748;14.326;2022-12-13T03:49:47;4.55;;;4.05;;
51612;SDS011;37694;51.748;14.326;2022-12-13T03:52:12;5.07;;;3.67;;
51612;SDS011;37694;51.748;14.326;2022-12-13T03:54:38;4.30;;;3.67;;
51612;SDS011;37694;51.748;14.326;2022-12-13T03:57:04;10.57;;;4.25;;
51612;SDS011;37694;51.748;14.326;2022-12-13T03:59:29;7.13;;;4.30;;
51612;SDS011;37694;51.748;14.326;2022-12-13T04:01:55;4.63;;;4.20;;
51612;SDS011;37694;51.748;14.326;2022-12-13T04:04:21;5.95;;;4.00;;
51612;SDS011;37694;51.748;14.326;2022-12-13T04:06:46;5.18;;;4.20;;
51612;SDS011;37694;51.748;14.326;2022-12-13T04:09:13;11.38;;;4.38;;
51612;SDS011;37694;51.748;14.326;2022-12-13T04:11:39;4.82;;;4.32;;
51612;SDS011;37694;51.748;14.326;2022-12-13T04:14:23;4.38;;;3.90;;
51612;SDS011;37694;51.748;14.326;2022-12-13T04:16:52;4.93;;;3.80;;
51612;SDS011;37694;51.748;14.326;2022-12-13T04:19:18;3.88;;;3.47;;
51612;SDS011;37694;51.748;14.326;2022-12-13T04:21:43;6.20;;;3.50;;
51612;SDS011;37694;51.748;14.326;2022-12-13T04:24:09;7.22;;;4.07;;
51612;SDS011;37694;51.748;14.326;2022-12-13T04:26:34;4.28;;;3.58;;
51612;SDS011;37694;51.748;14.326;2022-12-13T04:29:00;4.30;;;3.35;;
51612;SDS011;37694;51.748;14.326;2022-12-13T04:31:26;5.90;;;3.58;;
51612;SDS011;37694;51.748;14.326;2022-12-13T04:33:51;6.72;;;3.30;;
51612;SDS011;37694;51.748;14.326;2022-12-13T04:36:17;8.13;;;4.05;;
51612;SDS011;37694;51.748;14.326;2022-12-13T04:38:44;3.55;;;3.25;;
51612;SDS011;37694;51.748;14.326;2022-12-13T04:41:14;5.55;;;3.35;;
51612;SDS011;37694;51.748;14.326;2022-12-13T04:43:41;4.15;;;3.75;;
51612;SDS011;37694;51.748;14.326;2022-12-13T04:46:07;3.72;;;3.38;;
51612;SDS011;37694;51.748;14.326;2022-12-13T04:48:33;4.82;;;3.70;;
51612;SDS011;37694;51.748;14.326;2022-12-13T04:50:59;4.35;;;3.40;;
51612;SDS011;37694;51.748;14.326;2022-12-13T04:53:26;6.95;;;3.42;;
51612;SDS011;37694;51.748;14.326;2022-12-13T04:55:53;4.43;;;3.50;;
51612;SDS011;37694;51.748;14.326;2022-12-13T04:58:18;4.03;;;3.63;;
51612;SDS011;37694;51.748;14.326;2022-12-13T05:00:44;6.45;;;3.63;;
51612;SDS011;37694;51.748;14.326;2022-12-13T05:03:10;5.50;;;3.58;;
51612;SDS011;37694;51.748;14.326;2022-12-13T05:05:38;4.22;;;3.30;;
51612;SDS011;37694;51.748;14.326;2022-12-13T05:08:05;4.32;;;2.90;;
51612;SDS011;37694;51.748;14.326;2022-12-13T05:10:31;3.72;;;3.13;;
51612;SDS011;37694;51.748;14.326;2022-12-13T05:12:58;4.55;;;3.53;;
51612;SDS011;37694;51.748;14.326;2022-12-13T05:15:24;5.75;;;3.10;;
51612;SDS011;37694;51.748;14.326;2022-12-13T05:17:49;3.30;;;2.90;;
51612;SDS011;37694;51.748;14.326;2022-12-13T05:20:15;3.58;;;3.08;;
51612;SDS011;37694;51.748;14.326;2022-12-13T05:22:41;3.28;;;2.95;;
51612;SDS011;37694;51.748;14.326;2022-12-13T05:25:06;4.90;;;3.03;;
51612;SDS011;37694;51.748;14.326;2022-12-13T05:27:32;3.55;;;2.85;;
51612;SDS011;37694;51.748;14.326;2022-12-13T05:29:58;3.50;;;2.80;;
51612;SDS011;37694;51.748;14.326;2022-12-13T05:32:24;3.38;;;2.53;;
51612;SDS011;37694;51.748;14.326;2022-12-13T05:34:49;2.75;;;2.25;;
51612;SDS011;37694;51.748;14.326;2022-12-13T05:37:15;3.58;;;2.70;;
51612;SDS011;37694;51.748;14.326;2022-12-13T05:39:41;4.38;;;3.08;;
51612;SDS011;37694;51.748;14.326;2022-12-13T05:42:07;5.10;;;2.97;;
51612;SDS011;37694;51.748;14.326;2022-12-13T05:44:33;3.00;;;2.80;;
51612;SDS011;37694;51.748;14.326;2022-12-13T05:46:59;3.83;;;3.13;;
51612;SDS011;37694;51.748;14.326;2022-12-13T05:49:25;4.00;;;2.78;;
51612;SDS011;37694;51.748;14.326;2022-12-13T05:51:51;4.43;;;2.70;;
51612;SDS011;37694;51.748;14.326;2022-12-13T05:54:17;2.97;;;2.60;;
51612;SDS011;37694;51.748;14.326;2022-12-13T05:56:42;4.13;;;2.55;;
51612;SDS011;37694;51.748;14.326;2022-12-13T05:59:08;4.03;;;2.85;;
51612;SDS011;37694;51.748;14.326;2022-12-13T06:01:34;3.03;;;2.63;;
51612;SDS011;37694;51.748;14.326;2022-12-13T06:03:59;2.78;;;2.58;;
51612;SDS011;37694;51.748;14.326;2022-12-13T06:06:25;3.17;;;2.53;;
51612;SDS011;37694;51.748;14.326;2022-12-13T06:08:51;6.85;;;2.58;;
51612;SDS011;37694;51.748;14.326;2022-12-13T06:11:16;2.45;;;2.22;;
51612;SDS011;37694;51.748;14.326;2022-12-13T06:13:42;3.25;;;2.80;;
51612;SDS011;37694;51.748;14.326;2022-12-13T06:16:08;4.85;;;2.90;;
51612;SDS011;37694;51.748;14.326;2022-12-13T06:18:35;4.55;;;2.50;;
51612;SDS011;37694;51.748;14.326;2022-12-13T06:21:02;2.85;;;2.63;;
51612;SDS011;37694;51.748;14.326;2022-12-13T06:23:30;2.67;;;2.47;;
51612;SDS011;37694;51.748;14.326;2022-12-13T06:25:56;2.90;;;2.70;;
51612;SDS011;37694;51.748;14.326;2022-12-13T06:28:22;4.28;;;2.30;;
51612;SDS011;37694;51.748;14.326;2022-12-13T06:30:48;4.20;;;3.10;;
51612;SDS011;37694;51.748;14.326;2022-12-13T06:33:17;4.15;;;2.65;;
51612;SDS011;37694;51.748;14.326;2022-12-13T06:35:43;3.38;;;2.22;;
51612;SDS011;37694;51.748;14.326;2022-12-13T06:38:09;3.47;;;2.53;;
51612;SDS011;37694;51.748;14.326;2022-12-13T06:40:36;4.05;;;2.35;;
51612;SDS011;37694;51.748;14.326;2022-12-13T06:43:02;3.40;;;2.60;;
51612;SDS011;37694;51.748;14.326;2022-12-13T06:45:29;3.55;;;2.30;;
51612;SDS011;37694;51.748;14.326;2022-12-13T06:47:55;5.70;;;2.45;;
51612;SDS011;37694;51.748;14.326;2022-12-13T06:50:21;5.00;;;2.45;;
51612;SDS011;37694;51.748;14.326;2022-12-13T06:52:46;3.85;;;2.40;;
51612;SDS011;37694;51.748;14.326;2022-12-13T06:55:12;3.15;;;2.30;;
51612;SDS011;37694;51.748;14.326;2022-12-13T06:57:38;4.90;;;2.40;;
51612;SDS011;37694;51.748;14.326;2022-12-13T07:00:04;3.13;;;2.38;;
51612;SDS011;37694;51.748;14.326;2022-12-13T07:02:31;12.35;;;2.95;;
51612;SDS011;37694;51.748;14.326;2022-12-13T07:04:56;3.28;;;2.33;;
51612;SDS011;37694;51.748;14.326;2022-12-13T07:07:22;5.35;;;2.50;;
51612;SDS011;37694;51.748;14.326;2022-12-13T07:09:50;4.32;;;2.40;;
51612;SDS011;37694;51.748;14.326;2022-12-13T07:12:15;3.85;;;2.28;;
51612;SDS011;37694;51.748;14.326;2022-12-13T07:14:42;4.63;;;2.15;;
51612;SDS011;37694;51.748;14.326;2022-12-13T07:17:08;8.10;;;2.70;;
51612;SDS011;37694;51.748;14.326;2022-12-13T07:19:34;11.63;;;2.75;;
51612;SDS011;37694;51.748;14.326;2022-12-13T07:22:00;7.10;;;2.80;;
51612;SDS011;37694;51.748;14.326;2022-12-13T07:24:26;8.00;;;2.45;;
51612;SDS011;37694;51.748;14.326;2022-12-13T07:26:52;4.32;;;2.30;;
51612;SDS011;37694;51.748;14.326;2022-12-13T07:29:17;5.60;;;2.40;;
51612;SDS011;37694;51.748;14.326;2022-12-13T07:31:43;12.85;;;2.90;;
51612;SDS011;37694;51.748;14.326;2022-12-13T07:34:09;9.27;;;2.78;;
51612;SDS011;37694;51.748;14.326;2022-12-13T07:36:34;21.35;;;2.75;;
51612;SDS011;37694;51.748;14.326;2022-12-13T07:39:00;4.70;;;2.47;;
51612;SDS011;37694;51.748;14.326;2022-12-13T07:41:26;4.28;;;2.45;;
51612;SDS011;37694;51.748;14.326;2022-12-13T07:43:52;4.15;;;2.78;;
51612;SDS011;37694;51.748;14.326;2022-12-13T07:46:19;6.13;;;2.90;;
51612;SDS011;37694;51.748;14.326;2022-12-13T07:48:45;6.93;;;2.88;;
51612;SDS011;37694;51.748;14.326;2022-12-13T07:51:10;8.82;;;3.53;;
51612;SDS011;37694;51.748;14.326;2022-12-13T07:53:37;5.35;;;2.95;;
51612;SDS011;37694;51.748;14.326;2022-12-13T07:56:03;16.75;;;3.40;;
51612;SDS011;37694;51.748;14.326;2022-12-13T07:58:30;6.90;;;3.50;;
51612;SDS011;37694;51.748;14.326;2022-12-13T08:01:01;5.47;;;3.10;;
51612;SDS011;37694;51.748;14.326;2022-12-13T08:03:28;8.52;;;4.43;;
51612;SDS011;37694;51.748;14.326;2022-12-13T08:06:01;8.98;;;4.00;;
51612;SDS011;37694;51.748;14.326;2022-12-13T08:08:28;5.88;;;3.13;;
51612;SDS011;37694;51.748;14.326;2022-12-13T08:10:54;7.18;;;3.60;;
51612;SDS011;37694;51.748;14.326;2022-12-13T08:13:23;7.30;;;3.97;;
51612;SDS011;37694;51.748;14.326;2022-12-13T08:15:49;17.13;;;4.30;;
51612;SDS011;37694;51.748;14.326;2022-12-13T08:18:15;6.43;;;3.72;;
51612;SDS011;37694;51.748;14.326;2022-12-13T08:20:40;10.75;;;3.63;;
51612;SDS011;37694;51.748;14.326;2022-12-13T08:23:06;5.15;;;3.80;;
51612;SDS011;37694;51.748;14.326;2022-12-13T08:25:32;7.80;;;3.70;;
51612;SDS011;37694;51.748;14.326;2022-12-13T08:27:57;6.40;;;4.28;;
51612;SDS011;37694;51.748;14.326;2022-12-13T08:30:23;7.43;;;3.80;;
51612;SDS011;37694;51.748;14.326;2022-12-13T08:32:49;7.50;;;3.60;;
51612;SDS011;37694;51.748;14.326;2022-12-13T08:35:15;7.95;;;3.53;;
51612;SDS011;37694;51.748;14.326;2022-12-13T08:37:40;5.25;;;3.95;;
51612;SDS011;37694;51.748;14.326;2022-12-13T08:40:06;10.55;;;3.38;;
51612;SDS011;37694;51.748;14.326;2022-12-13T08:42:33;4.82;;;2.90;;
51612;SDS011;37694;51.748;14.326;2022-12-13T08:44:59;11.23;;;3.28;;
51612;SDS011;37694;51.748;14.326;2022-12-13T08:47:25;4.40;;;2.97;;
51612;SDS011;37694;51.748;14.326;2022-12-13T08:49:54;5.75;;;2.97;;
51612;SDS011;37694;51.748;14.326;2022-12-13T08:52:23;7.57;;;3.15;;
51612;SDS011;37694;51.748;14.326;2022-12-13T08:54:48;4.85;;;2.90;;
51612;SDS011;37694;51.748;14.326;2022-12-13T08:57:15;4.45;;;2.60;;
51612;SDS011;37694;51.748;14.326;2022-12-13T08:59:40;8.00;;;3.45;;
51612;SDS011;37694;51.748;14.326;2022-12-13T09:02:08;5.22;;;2.83;;
51612;SDS011;37694;51.748;14.326;2022-12-13T09:04:37;4.47;;;3.00;;
51612;SDS011;37694;51.748;14.326;2022-12-13T09:07:03;3.85;;;3.28;;
51612;SDS011;37694;51.748;14.326;2022-12-13T09:09:28;12.23;;;3.25;;
51612;SDS011;37694;51.748;14.326;2022-12-13T09:11:54;7.35;;;3.38;;
51612;SDS011;37694;51.748;14.326;2022-12-13T09:14:20;8.55;;;3.38;;
51612;SDS011;37694;51.748;14.326;2022-12-13T09:16:46;5.68;;;3.78;;
51612;SDS011;37694;51.748;14.326;2022-12-13T09:19:12;5.03;;;3.42;;
51612;SDS011;37694;51.748;14.326;2022-12-13T09:21:38;11.70;;;3.63;;
51612;SDS011;37694;51.748;14.326;2022-12-13T09:24:03;4.20;;;3.22;;
51612;SDS011;37694;51.748;14.326;2022-12-13T09:26:29;4.82;;;3.10;;
51612;SDS011;37694;51.748;14.326;2022-12-13T09:28:55;5.88;;;3.38;;
51612;SDS011;37694;51.748;14.326;2022-12-13T09:31:21;7.05;;;3.92;;
51612;SDS011;37694;51.748;14.326;2022-12-13T09:33:46;8.93;;;3.95;;
51612;SDS011;37694;51.748;14.326;2022-12-13T09:36:14;9.85;;;3.70;;
51612;SDS011;37694;51.748;14.326;2022-12-13T09:38:41;9.60;;;3.90;;
51612;SDS011;37694;51.748;14.326;2022-12-13T09:43:56;6.63;;;3.75;;
51612;SDS011;37694;51.748;14.326;2022-12-13T09:48:59;6.03;;;3.45;;
51612;SDS011;37694;51.748;14.326;2022-12-13T09:51:28;3.85;;;3.40;;
51612;SDS011;37694;51.748;14.326;2022-12-13T09:53:56;4.30;;;3.63;;
51612;SDS011;37694;51.748;14.326;2022-12-13T09:56:22;5.80;;;3.88;;
51612;SDS011;37694;51.748;14.326;2022-12-13T09:58:51;4.90;;;3.45;;
51612;SDS011;37694;51.748;14.326;2022-12-13T10:01:19;3.33;;;3.03;;
51612;SDS011;37694;51.748;14.326;2022-12-13T10:03:48;6.25;;;3.40;;
51612;SDS011;37694;51.748;14.326;2022-12-13T10:06:17;8.70;;;3.28;;
51612;SDS011;37694;51.748;14.326;2022-12-13T10:08:44;5.28;;;2.88;;
51612;SDS011;37694;51.748;14.326;2022-12-13T10:11:17;5.25;;;3.50;;
51612;SDS011;37694;51.748;14.326;2022-12-13T10:13:47;7.38;;;3.35;;
51612;SDS011;37694;51.748;14.326;2022-12-13T10:16:24;5.38;;;3.00;;
51612;SDS011;37694;51.748;14.326;2022-12-13T10:18:51;4.82;;;2.50;;
51612;SDS011;37694;51.748;14.326;2022-12-13T10:21:19;5.88;;;3.17;;
51612;SDS011;37694;51.748;14.326;2022-12-13T10:23:52;4.72;;;2.80;;
51612;SDS011;37694;51.748;14.326;2022-12-13T10:26:17;11.38;;;2.75;;
51612;SDS011;37694;51.748;14.326;2022-12-13T10:28:43;7.53;;;2.70;;
51612;SDS011;37694;51.748;14.326;2022-12-13T10:31:18;3.85;;;3.08;;
51612;SDS011;37694;51.748;14.326;2022-12-13T10:33:54;5.13;;;2.85;;
51612;SDS011;37694;51.748;14.326;2022-12-13T10:38:59;9.02;;;2.78;;
51612;SDS011;37694;51.748;14.326;2022-12-13T10:44:08;4.25;;;2.50;;
51612;SDS011;37694;51.748;14.326;2022-12-13T10:46:39;8.25;;;3.10;;
51612;SDS011;37694;51.748;14.326;2022-12-13T10:49:14;12.65;;;3.08;;
51612;SDS011;37694;51.748;14.326;2022-12-13T10:51:48;16.92;;;3.95;;
51612;SDS011;37694;51.748;14.326;2022-12-13T10:54:17;10.55;;;2.55;;
51612;SDS011;37694;51.748;14.326;2022-12-13T10:56:50;7.93;;;2.97;;
51612;SDS011;37694;51.748;14.326;2022-12-13T10:59:24;3.90;;;2.92;;
51612;SDS011;37694;51.748;14.326;2022-12-13T11:02:01;5.13;;;2.95;;
51612;SDS011;37694;51.748;14.326;2022-12-13T11:04:47;10.82;;;2.72;;
51612;SDS011;37694;51.748;14.326;2022-12-13T11:07:28;9.50;;;2.97;;
51612;SDS011;37694;51.748;14.326;2022-12-13T11:10:14;7.22;;;2.97;;
51612;SDS011;37694;51.748;14.326;2022-12-13T11:12:45;10.18;;;2.70;;
51612;SDS011;37694;51.748;14.326;2022-12-13T11:15:24;9.93;;;2.92;;
51612;SDS011;37694;51.748;14.326;2022-12-13T11:17:50;7.93;;;2.78;;
51612;SDS011;37694;51.748;14.326;2022-12-13T11:20:20;11.52;;;3.13;;
51612;SDS011;37694;51.748;14.326;2022-12-13T11:22:48;9.18;;;3.25;;
51612;SDS011;37694;51.748;14.326;2022-12-13T11:25:25;5.95;;;2.63;;
51612;SDS011;37694;51.748;14.326;2022-12-13T11:33:07;8.15;;;3.17;;
51612;SDS011;37694;51.748;14.326;2022-12-13T11:41:57;4.15;;;2.70;;
51612;SDS011;37694;51.748;14.326;2022-12-13T11:45:00;8.52;;;2.88;;
51612;SDS011;37694;51.748;14.326;2022-12-13T11:47:47;10.65;;;2.70;;
51612;SDS011;37694;51.748;14.326;2022-12-13T11:50:16;11.65;;;2.33;;
51612;SDS011;37694;51.748;14.326;2022-12-13T11:52:54;9.95;;;3.42;;
51612;SDS011;37694;51.748;14.326;2022-12-13T11:57:57;10.75;;;2.58;;
51612;SDS011;37694;51.748;14.326;2022-12-13T12:03:02;5.53;;;2.38;;
51612;SDS011;37694;51.748;14.326;2022-12-13T12:05:45;10.63;;;2.78;;
51612;SDS011;37694;51.748;14.326;2022-12-13T12:11:17;7.40;;;2.38;;
51612;SDS011;37694;51.748;14.326;2022-12-13T12:13:52;5.38;;;2.50;;
51612;SDS011;37694;51.748;14.326;2022-12-13T12:16:56;6.63;;;2.45;;
51612;SDS011;37694;51.748;14.326;2022-12-13T12:19:25;13.50;;;3.13;;
51612;SDS011;37694;51.748;14.326;2022-12-13T12:24:27;20.95;;;2.70;;
51612;SDS011;37694;51.748;14.326;2022-12-13T12:37:52;7.88;;;2.50;;
51612;SDS011;37694;51.748;14.326;2022-12-13T12:43:08;7.85;;;2.78;;
51612;SDS011;37694;51.748;14.326;2022-12-13T12:54:41;14.40;;;3.20;;
51612;SDS011;37694;51.748;14.326;2022-12-13T12:57:25;26.50;;;3.42;;
51612;SDS011;37694;51.748;14.326;2022-12-13T13:00:15;26.38;;;4.28;;
51612;SDS011;37694;51.748;14.326;2022-12-13T13:02:51;13.68;;;4.18;;
51612;SDS011;37694;51.748;14.326;2022-12-13T13:05:35;15.07;;;2.65;;
51612;SDS011;37694;51.748;14.326;2022-12-13T13:08:19;8.63;;;3.23;;
51612;SDS011;37694;51.748;14.326;2022-12-13T13:10:51;10.23;;;2.80;;
51612;SDS011;37694;51.748;14.326;2022-12-13T13:18:51;13.57;;;3.08;;
51612;SDS011;37694;51.748;14.326;2022-12-13T13:26:29;16.33;;;3.22;;
51612;SDS011;37694;51.748;14.326;2022-12-13T13:34:38;14.65;;;2.78;;
51612;SDS011;37694;51.748;14.326;2022-12-13T13:37:06;10.32;;;2.90;;
51612;SDS011;37694;51.748;14.326;2022-12-13T13:44:55;9.25;;;3.25;;
51612;SDS011;37694;51.748;14.326;2022-12-13T13:47:40;14.60;;;3.03;;
51612;SDS011;37694;51.748;14.326;2022-12-13T14:28:20;12.50;;;2.85;;
51612;SDS011;37694;51.748;14.326;2022-12-13T14:31:23;33.72;;;2.95;;
51612;SDS011;37694;51.748;14.326;2022-12-13T14:33:58;9.85;;;2.92;;
51612;SDS011;37694;51.748;14.326;2022-12-13T14:36:27;16.50;;;2.60;;
51612;SDS011;37694;51.748;14.326;2022-12-13T14:39:00;4.50;;;2.78;;
51612;SDS011;37694;51.748;14.326;2022-12-13T14:41:26;5.18;;;2.38;;
51612;SDS011;37694;51.748;14.326;2022-12-13T14:43:52;8.63;;;2.25;;
51612;SDS011;37694;51.748;14.326;2022-12-13T14:46:17;15.15;;;2.70;;
51612;SDS011;37694;51.748;14.326;2022-12-13T14:48:44;9.30;;;2.22;;
51612;SDS011;37694;51.748;14.326;2022-12-13T14:53:56;5.35;;;2.45;;
51612;SDS011;37694;51.748;14.326;2022-12-13T14:56:23;7.13;;;2.17;;
51612;SDS011;37694;51.748;14.326;2022-12-13T14:58:52;9.57;;;2.10;;
51612;SDS011;37694;51.748;14.326;2022-12-13T15:01:27;10.98;;;2.20;;
51612;SDS011;37694;51.748;14.326;2022-12-13T15:07:07;11.15;;;2.10;;
51612;SDS011;37694;51.748;14.326;2022-12-13T15:09:34;3.78;;;2.05;;
51612;SDS011;37694;51.748;14.326;2022-12-13T15:12:14;7.65;;;2.30;;
51612;SDS011;37694;51.748;14.326;2022-12-13T15:14:42;12.13;;;2.22;;
51612;SDS011;37694;51.748;14.326;2022-12-13T15:19:50;4.35;;;1.90;;
51612;SDS011;37694;51.748;14.326;2022-12-13T15:22:16;9.13;;;2.55;;
51612;SDS011;37694;51.748;14.326;2022-12-13T15:24:42;16.45;;;2.53;;
51612;SDS011;37694;51.748;14.326;2022-12-13T15:27:13;16.05;;;2.08;;
51612;SDS011;37694;51.748;14.326;2022-12-13T15:29:40;14.38;;;2.53;;
51612;SDS011;37694;51.748;14.326;2022-12-13T15:32:12;9.43;;;1.77;;
51612;SDS011;37694;51.748;14.326;2022-12-13T15:34:43;11.48;;;2.13;;
51612;SDS011;37694;51.748;14.326;2022-12-13T15:39:43;14.57;;;2.35;;
51612;SDS011;37694;51.748;14.326;2022-12-13T15:42:14;5.00;;;1.70;;
51612;SDS011;37694;51.748;14.326;2022-12-13T15:44:47;11.02;;;2.00;;
51612;SDS011;37694;51.748;14.326;2022-12-13T15:47:18;6.57;;;1.77;;
51612;SDS011;37694;51.748;14.326;2022-12-13T15:49:52;7.85;;;1.90;;
51612;SDS011;37694;51.748;14.326;2022-12-13T15:55:21;9.95;;;1.90;;
51612;SDS011;37694;51.748;14.326;2022-12-13T15:57:49;8.63;;;1.77;;
51612;SDS011;37694;51.748;14.326;2022-12-13T16:03:01;6.68;;;2.28;;
51612;SDS011;37694;51.748;14.326;2022-12-13T16:05:39;13.95;;;2.65;;
51612;SDS011;37694;51.748;14.326;2022-12-13T16:10:54;5.68;;;1.50;;
51612;SDS011;37694;51.748;14.326;2022-12-13T16:13:26;12.63;;;1.60;;
51612;SDS011;37694;51.748;14.326;2022-12-13T16:15:57;7.95;;;2.10;;
51612;SDS011;37694;51.748;14.326;2022-12-13T16:18:25;5.22;;;1.85;;
51612;SDS011;37694;51.748;14.326;2022-12-13T16:20:58;16.75;;;2.63;;
51612;SDS011;37694;51.748;14.326;2022-12-13T16:23:24;6.22;;;2.35;;
51612;SDS011;37694;51.748;14.326;2022-12-13T16:25:50;7.05;;;1.75;;
51612;SDS011;37694;51.748;14.326;2022-12-13T16:28:16;8.93;;;2.30;;
51612;SDS011;37694;51.748;14.326;2022-12-13T16:33:20;6.55;;;2.00;;
51612;SDS011;37694;51.748;14.326;2022-12-13T16:35:47;8.35;;;1.80;;
51612;SDS011;37694;51.748;14.326;2022-12-13T16:38:13;11.13;;;2.20;;
51612;SDS011;37694;51.748;14.326;2022-12-13T16:40:40;6.68;;;1.75;;
51612;SDS011;37694;51.748;14.326;2022-12-13T16:43:17;7.72;;;2.00;;
51612;SDS011;37694;51.748;14.326;2022-12-13T16:45:46;11.52;;;1.92;;
51612;SDS011;37694;51.748;14.326;2022-12-13T16:48:14;5.68;;;2.05;;
51612;SDS011;37694;51.748;14.326;2022-12-13T16:50:40;5.07;;;1.67;;
51612;SDS011;37694;51.748;14.326;2022-12-13T16:53:07;4.50;;;1.88;;
51612;SDS011;37694;51.748;14.326;2022-12-13T16:55:34;7.15;;;2.08;;
51612;SDS011;37694;51.748;14.326;2022-12-13T16:58:01;9.50;;;1.83;;
51612;SDS011;37694;51.748;14.326;2022-12-13T17:00:28;13.88;;;2.38;;
51612;SDS011;37694;51.748;14.326;2022-12-13T17:02:55;7.78;;;2.53;;
51612;SDS011;37694;51.748;14.326;2022-12-13T17:05:22;11.52;;;2.20;;
51612;SDS011;37694;51.748;14.326;2022-12-13T17:07:49;12.55;;;2.20;;
51612;SDS011;37694;51.748;14.326;2022-12-13T17:10:15;9.73;;;2.38;;
51612;SDS011;37694;51.748;14.326;2022-12-13T17:12:41;6.22;;;2.25;;
51612;SDS011;37694;51.748;14.326;2022-12-13T17:15:07;12.60;;;2.28;;
51612;SDS011;37694;51.748;14.326;2022-12-13T17:17:41;8.27;;;2.10;;